createdAt,value
2019-06-07T00:01:50.698Z,95690.00
2019-06-07T00:04:22.924Z,95698.00
2019-06-07T00:06:55.022Z,95689.00
2019-06-07T00:09:27.966Z,95687.00
2019-06-07T00:11:59.869Z,95682.00
2019-06-07T00:14:31.762Z,95680.00
2019-06-07T00:17:03.927Z,95688.00
2019-06-07T00:19:35.760Z,95693.00
2019-06-07T00:22:17.546Z,95686.00
2019-06-07T00:24:41.273Z,95689.00
2019-06-07T00:27:15.158Z,95678.00
2019-06-07T00:29:47.125Z,95665.00
2019-06-07T00:32:21.997Z,95657.00
2019-06-07T00:34:53.164Z,95654.00
2019-06-07T00:37:25.566Z,95643.00
2019-06-07T00:40:13.488Z,95643.00
2019-06-07T00:42:31.662Z,95643.00
2019-06-07T00:45:03.522Z,95634.00
2019-06-07T00:47:35.800Z,95642.00
2019-06-07T00:50:08.311Z,95635.00
2019-06-07T00:53:13.838Z,95638.00
2019-06-07T00:55:17.427Z,95633.00
2019-06-07T00:57:48.192Z,95633.00
2019-06-07T01:00:25.507Z,95628.00
2019-06-07T01:02:56.303Z,95632.00
2019-06-07T01:05:31.456Z,95626.00
2019-06-07T01:08:04.428Z,95619.00
2019-06-07T01:10:53.102Z,95626.00
2019-06-07T01:13:10.256Z,95620.00
2019-06-07T01:15:42.414Z,95620.00
2019-06-07T01:20:48.792Z,95618.00
2019-06-07T01:23:59.847Z,95627.00
2019-06-07T01:25:54.721Z,95621.00
2019-06-07T01:28:27.776Z,95627.00
2019-06-07T01:31:00.305Z,95624.00
2019-06-07T01:33:50.448Z,95628.00
2019-06-07T01:36:06.160Z,95623.00
2019-06-07T01:38:38.425Z,95628.00
2019-06-07T01:41:10.598Z,95614.00
2019-06-07T01:43:42.715Z,95607.00
2019-06-07T01:46:15.564Z,95605.00
2019-06-07T01:48:49.844Z,95610.00
2019-06-07T01:51:22.020Z,95602.00
2019-06-07T01:54:41.499Z,95602.00
2019-06-07T01:56:29.887Z,95598.00
2019-06-07T01:59:02.517Z,95597.00
2019-06-07T02:01:35.554Z,95600.00
2019-06-07T02:04:07.771Z,95600.00
2019-06-07T02:06:39.664Z,95605.00
2019-06-07T02:09:11.799Z,95593.00
2019-06-07T02:11:43.923Z,95600.00
2019-06-07T02:14:16.548Z,95592.00
2019-06-07T02:16:48.696Z,95590.00
2019-06-07T02:19:22.008Z,95584.00
2019-06-07T02:21:54.145Z,95585.00
2019-06-07T02:24:28.945Z,95587.00
2019-06-07T02:27:00.146Z,95590.00
2019-06-07T02:29:33.686Z,95592.00
2019-06-07T02:32:06.042Z,95588.00
2019-06-07T02:34:39.715Z,95583.00
2019-06-07T02:37:12.382Z,95580.00
2019-06-07T02:39:44.270Z,95572.00
2019-06-07T02:42:16.478Z,95574.00
2019-06-07T02:44:48.585Z,95576.00
2019-06-07T02:47:22.632Z,95582.00
2019-06-07T02:49:55.058Z,95573.00
2019-06-07T02:52:31.643Z,95560.00
2019-06-07T02:55:00.958Z,95563.00
2019-06-07T02:57:36.855Z,95567.00
2019-06-07T03:00:40.581Z,95556.00
2019-06-07T03:02:41.924Z,95567.00
2019-06-07T03:05:13.828Z,95564.00
2019-06-07T03:07:47.435Z,95567.00
2019-06-07T03:10:19.345Z,95560.00
2019-06-07T03:12:53.302Z,95559.00
2019-06-07T03:15:37.365Z,95553.00
2019-06-07T03:18:12.222Z,95556.00
2019-06-07T03:21:04.315Z,95548.00
2019-06-07T03:23:20.543Z,95547.00
2019-06-07T03:25:54.222Z,95548.00
2019-06-07T03:28:27.583Z,95551.00
2019-06-07T03:31:02.649Z,95560.00
2019-06-07T03:33:41.560Z,95541.00
2019-06-07T03:36:22.892Z,95556.00
2019-06-07T03:38:41.062Z,95550.00
2019-06-07T03:41:13.650Z,95549.00
2019-06-07T03:43:45.855Z,95551.00
2019-06-07T03:46:18.085Z,95554.00
2019-06-07T03:48:50.205Z,95545.00
2019-06-07T03:51:25.212Z,95553.00
2019-06-07T03:53:55.861Z,95554.00
2019-06-07T03:56:28.309Z,95553.00
2019-06-07T03:59:01.415Z,95550.00
2019-06-07T04:01:34.820Z,95548.00
2019-06-07T04:04:07.827Z,95554.00
2019-06-07T04:06:42.573Z,95549.00
2019-06-07T04:09:14.151Z,95544.00
2019-06-07T04:11:45.998Z,95542.00
2019-06-07T04:14:18.116Z,95547.00
2019-06-07T04:16:50.338Z,95544.00
2019-06-07T04:19:22.816Z,95538.00
2019-06-07T04:21:55.315Z,95532.00
2019-06-07T04:24:28.618Z,95518.00
2019-06-07T04:27:00.952Z,95520.00
2019-06-07T04:29:54.641Z,95516.00
2019-06-07T04:32:06.708Z,95521.00
2019-06-07T04:34:42.897Z,95516.00
2019-06-07T04:37:12.257Z,95510.00
2019-06-07T04:39:45.408Z,95505.00
2019-06-07T04:42:18.862Z,95504.00
2019-06-07T04:44:52.256Z,95500.00
2019-06-07T04:47:26.588Z,95511.00
2019-06-07T04:49:59.729Z,95509.00
2019-06-07T04:52:33.450Z,95509.00
2019-06-07T04:55:06.622Z,95511.00
2019-06-07T04:57:40.493Z,95513.00
2019-06-07T05:00:46.607Z,95517.00
2019-06-07T05:02:47.020Z,95516.00
2019-06-07T05:05:18.851Z,95518.00
2019-06-07T05:07:50.989Z,95516.00
2019-06-07T05:10:22.890Z,95508.00
2019-06-07T05:12:55.507Z,95506.00
2019-06-07T05:15:27.403Z,95507.00
2019-06-07T05:17:59.706Z,95510.00
2019-06-07T05:20:33.649Z,95501.00
2019-06-07T05:23:05.360Z,95498.00
2019-06-07T05:25:39.304Z,95494.00
2019-06-07T05:28:11.302Z,95500.00
2019-06-07T05:31:03.427Z,95486.00
2019-06-07T05:33:18.000Z,95496.00
2019-06-07T05:35:50.465Z,95484.00
2019-06-07T05:38:22.634Z,95482.00
2019-06-07T05:40:54.469Z,95483.00
2019-06-07T05:43:28.226Z,95482.00
2019-06-07T05:46:00.066Z,95485.00
2019-06-07T05:48:31.909Z,95478.00
2019-06-07T05:51:04.313Z,95485.00
2019-06-07T05:53:39.992Z,95483.00
2019-06-07T05:56:10.214Z,95477.00
2019-06-07T05:58:44.567Z,95483.00
2019-06-07T06:03:50.693Z,95480.00
2019-06-07T06:06:22.549Z,95475.00
2019-06-07T06:09:12.882Z,95465.00
2019-06-07T06:11:43.136Z,95475.00
2019-06-07T06:14:07.979Z,95476.00
2019-06-07T06:16:37.175Z,95471.00
2019-06-07T06:19:09.497Z,95477.00
2019-06-07T06:21:44.841Z,95470.00
2019-06-07T06:24:15.188Z,95463.00
2019-06-07T06:26:52.150Z,95468.00
2019-06-07T06:29:20.985Z,95471.00
2019-06-07T06:32:39.790Z,95467.00
2019-06-07T06:34:28.122Z,95473.00
2019-06-07T06:37:00.739Z,95478.00
2019-06-07T06:39:32.965Z,95467.00
2019-06-07T06:42:05.104Z,95463.00
2019-06-07T06:44:40.721Z,95464.00
2019-06-07T06:47:10.775Z,95459.00
2019-06-07T06:49:44.228Z,95446.00
2019-06-07T06:52:16.174Z,95448.00
2019-06-07T06:54:55.381Z,95448.00
2019-06-07T06:57:21.903Z,95444.00
2019-06-07T06:59:54.206Z,95440.00
2019-06-07T07:02:26.510Z,95448.00
2019-06-07T07:04:59.181Z,95432.00
2019-06-07T07:07:31.692Z,95434.00
2019-06-07T07:10:05.395Z,95436.00
2019-06-07T07:12:37.351Z,95435.00
2019-06-07T07:15:12.827Z,95426.00
2019-06-07T07:17:53.772Z,95434.00
2019-06-07T07:20:18.667Z,95428.00
2019-06-07T07:22:54.217Z,95436.00
2019-06-07T07:25:24.672Z,95430.00
2019-06-07T07:27:56.809Z,95430.00
2019-06-07T07:30:50.830Z,95420.00
2019-06-07T07:33:22.646Z,95419.00
2019-06-07T07:36:18.530Z,95407.00
2019-06-07T07:38:28.584Z,95408.00
2019-06-07T07:41:13.897Z,95402.00
2019-06-07T07:43:34.584Z,95389.00
2019-06-07T07:46:28.482Z,95389.00
2019-06-07T07:48:39.986Z,95378.00
2019-06-07T07:51:12.111Z,95378.00
2019-06-07T07:53:54.354Z,95371.00
2019-06-07T07:56:18.176Z,95371.00
2019-06-07T07:58:54.523Z,95363.00
2019-06-07T08:01:24.156Z,95362.00
2019-06-07T08:03:56.956Z,95353.00
2019-06-07T08:06:30.278Z,95351.00
2019-06-07T08:09:02.548Z,95356.00
2019-06-07T08:11:34.387Z,95355.00
2019-06-07T08:14:06.219Z,95355.00
2019-06-07T08:16:38.090Z,95358.00
2019-06-07T08:19:10.290Z,95346.00
2019-06-07T08:21:42.440Z,95346.00
2019-06-07T08:24:14.896Z,95360.00
2019-06-07T08:27:13.030Z,95351.00
2019-06-07T08:29:20.999Z,95357.00
2019-06-07T08:31:55.825Z,95349.00
2019-06-07T08:34:27.288Z,95342.00
2019-06-07T08:37:02.064Z,95335.00
2019-06-07T08:39:33.367Z,95327.00
2019-06-07T08:42:15.245Z,95337.00
2019-06-07T08:44:38.759Z,95320.00
2019-06-07T08:47:19.748Z,95315.00
2019-06-07T08:49:44.160Z,95318.00
2019-06-07T08:52:16.564Z,95320.00
2019-06-07T08:54:48.771Z,95323.00
2019-06-07T08:57:22.099Z,95319.00
2019-06-07T08:59:56.611Z,95321.00
2019-06-07T09:02:28.197Z,95324.00
2019-06-07T09:05:11.117Z,95321.00
2019-06-07T09:07:34.014Z,95319.00
2019-06-07T09:10:13.415Z,95309.00
2019-06-07T09:12:41.576Z,95295.00
2019-06-07T09:15:22.884Z,95298.00
2019-06-07T09:18:30.209Z,95289.00
2019-06-07T09:20:36.212Z,95292.00
2019-06-07T09:23:06.290Z,95289.00
2019-06-07T09:25:31.577Z,95291.00
2019-06-07T09:28:13.423Z,95285.00
2019-06-07T09:30:42.718Z,95278.00
2019-06-07T09:33:15.168Z,95293.00
2019-06-07T09:35:47.026Z,95287.00
2019-06-07T09:38:25.783Z,95279.00
2019-06-07T09:40:53.087Z,95271.00
2019-06-07T09:44:00.547Z,95269.00
2019-06-07T09:46:01.045Z,95272.00
2019-06-07T09:49:09.698Z,95277.00
2019-06-07T09:51:19.193Z,95272.00
2019-06-07T09:53:41.664Z,95267.00
2019-06-07T09:56:14.987Z,95269.00
2019-06-07T09:58:52.114Z,95264.00
2019-06-07T10:01:21.011Z,95261.00
2019-06-07T10:03:54.102Z,95254.00
2019-06-07T10:06:25.935Z,95247.00
2019-06-07T10:11:31.726Z,95247.00
2019-06-07T10:14:04.462Z,95256.00
2019-06-07T10:16:46.481Z,95255.00
2019-06-07T10:19:10.799Z,95250.00
2019-06-07T10:21:43.476Z,95249.00
2019-06-07T10:24:15.347Z,95240.00
2019-06-07T10:26:47.282Z,95244.00
2019-06-07T10:29:19.457Z,95251.00
2019-06-07T10:31:51.446Z,95241.00
2019-06-07T10:34:23.337Z,95247.00
2019-06-07T10:36:55.650Z,95251.00
2019-06-07T10:39:28.180Z,95246.00
2019-06-07T10:42:00.919Z,95244.00
2019-06-07T10:44:32.934Z,95246.00
2019-06-07T10:47:06.062Z,95257.00
2019-06-07T10:49:38.340Z,95243.00
2019-06-07T10:52:11.635Z,95240.00
2019-06-07T10:54:44.342Z,95237.00
2019-06-07T10:57:16.438Z,95228.00
2019-06-07T10:59:49.064Z,95232.00
2019-06-07T11:02:20.944Z,95221.00
2019-06-07T11:04:53.713Z,95221.00
2019-06-07T11:07:26.059Z,95232.00
2019-06-07T11:10:07.315Z,95219.00
2019-06-07T11:12:32.349Z,95214.00
2019-06-07T11:15:04.600Z,95210.00
2019-06-07T11:17:36.771Z,95203.00
2019-06-07T11:20:10.298Z,95194.00
2019-06-07T11:22:43.245Z,95187.00
2019-06-07T11:25:15.490Z,95178.00
2019-06-07T11:27:47.863Z,95176.00
2019-06-07T11:30:20.390Z,95174.00
2019-06-07T11:32:52.626Z,95168.00
2019-06-07T11:35:25.094Z,95163.00
2019-06-07T11:37:56.935Z,95158.00
2019-06-07T11:40:35.493Z,95174.00
2019-06-07T11:43:02.492Z,95175.00
2019-06-07T11:45:34.719Z,95169.00
2019-06-07T11:48:07.222Z,95177.00
2019-06-07T11:50:39.142Z,95170.00
2019-06-07T11:53:12.622Z,95161.00
2019-06-07T11:55:44.706Z,95166.00
2019-06-07T11:58:21.276Z,95169.00
2019-06-07T12:00:50.705Z,95166.00
2019-06-07T12:03:22.777Z,95161.00
2019-06-07T12:05:54.909Z,95157.00
2019-06-07T12:08:26.880Z,95168.00
2019-06-07T12:10:59.606Z,95165.00
2019-06-07T12:13:31.735Z,95155.00
2019-06-07T12:16:03.612Z,95160.00
2019-06-07T12:18:35.461Z,95152.00
2019-06-07T12:21:07.300Z,95147.00
2019-06-07T12:23:39.481Z,95150.00
2019-06-07T12:26:12.285Z,95145.00
2019-06-07T12:28:44.202Z,95153.00
2019-06-07T12:31:17.132Z,95158.00
2019-06-07T12:33:49.693Z,95139.00
2019-06-07T12:36:22.075Z,95145.00
2019-06-07T12:38:54.321Z,95141.00
2019-06-07T12:41:26.510Z,95137.00
2019-06-07T12:43:59.315Z,95132.00
2019-06-07T12:46:31.884Z,95131.00
2019-06-07T12:49:03.708Z,95134.00
2019-06-07T12:51:36.185Z,95129.00
2019-06-07T12:54:08.111Z,95120.00
2019-06-07T12:56:40.145Z,95127.00
2019-06-07T12:59:13.882Z,95127.00
2019-06-07T13:01:46.199Z,95122.00
2019-06-07T13:04:18.527Z,95122.00
2019-06-07T13:06:50.662Z,95120.00
2019-06-07T13:09:23.959Z,95118.00
2019-06-07T13:11:56.658Z,95124.00
2019-06-07T13:14:28.600Z,95129.00
2019-06-07T13:17:01.033Z,95120.00
2019-06-07T13:19:33.132Z,95114.00
2019-06-07T13:22:04.977Z,95122.00
2019-06-07T13:24:37.205Z,95120.00
2019-06-07T13:27:09.435Z,95112.00
2019-06-07T13:29:41.279Z,95120.00
2019-06-07T13:32:13.114Z,95110.00
2019-06-07T13:34:44.954Z,95099.00
2019-06-07T13:37:16.994Z,95094.00
2019-06-07T13:39:48.868Z,95093.00
2019-06-07T13:42:22.435Z,95089.00
2019-06-07T13:44:55.051Z,95096.00
2019-06-07T13:47:27.550Z,95083.00
2019-06-07T13:49:59.778Z,95082.00
2019-06-07T13:52:31.638Z,95072.00
2019-06-07T13:55:03.482Z,95062.00
2019-06-07T13:57:35.301Z,95063.00
2019-06-07T14:00:10.826Z,95062.00
2019-06-07T14:02:43.532Z,95051.00
2019-06-07T14:05:16.014Z,95046.00
2019-06-07T14:07:48.564Z,95052.00
2019-06-07T14:10:21.661Z,95046.00
2019-06-07T14:12:53.694Z,95039.00
2019-06-07T14:15:26.444Z,95040.00
2019-06-07T14:17:58.976Z,95047.00
2019-06-07T14:20:34.621Z,95048.00
2019-06-07T14:23:05.114Z,95039.00
2019-06-07T14:25:37.217Z,95031.00
2019-06-07T14:28:11.323Z,95028.00
2019-06-07T14:30:42.965Z,95030.00
2019-06-07T14:33:15.153Z,95033.00
2019-06-07T14:35:47.312Z,95026.00
2019-06-07T14:38:19.136Z,95029.00
2019-06-07T14:40:50.981Z,95030.00
2019-06-07T14:43:23.607Z,95021.00
2019-06-07T14:45:55.753Z,95020.00
2019-06-07T14:48:28.075Z,95009.00
2019-06-07T14:51:00.206Z,95017.00
2019-06-07T14:53:33.198Z,95006.00
2019-06-07T14:56:05.440Z,95010.00
2019-06-07T14:58:43.083Z,95014.00
2019-06-07T15:01:11.202Z,94997.00
2019-06-07T15:03:43.218Z,95001.00
2019-06-07T15:06:15.393Z,94965.00
2019-06-07T15:08:51.326Z,94993.00
2019-06-07T15:11:21.944Z,95004.00
2019-06-07T15:13:54.063Z,94994.00
2019-06-07T15:16:27.376Z,94995.00
2019-06-07T15:18:59.983Z,94996.00
2019-06-07T15:21:32.962Z,95002.00
2019-06-07T15:24:05.215Z,95044.00
2019-06-07T15:26:38.565Z,95004.00
2019-06-07T15:29:10.775Z,95018.00
2019-06-07T15:31:43.920Z,95016.00
2019-06-07T15:34:15.747Z,95031.00
2019-06-07T15:36:48.357Z,95028.00
2019-06-07T15:39:21.687Z,95025.00
2019-06-07T15:41:54.527Z,95036.00
2019-06-07T15:44:26.360Z,95039.00
2019-06-07T15:46:58.228Z,95033.00
2019-06-07T15:49:30.338Z,95035.00
2019-06-07T15:52:02.560Z,95036.00
2019-06-07T15:54:36.455Z,95037.00
2019-06-07T15:57:08.503Z,95032.00
2019-06-07T15:59:41.563Z,95031.00
2019-06-07T16:02:13.978Z,95034.00
2019-06-07T16:04:46.059Z,95029.00
2019-06-07T16:07:18.685Z,95018.00
2019-06-07T16:09:51.121Z,95026.00
2019-06-07T16:12:23.523Z,95025.00
2019-06-07T16:14:55.465Z,95026.00
2019-06-07T16:17:28.446Z,95028.00
2019-06-07T16:20:00.876Z,95028.00
2019-06-07T16:22:33.524Z,95029.00
2019-06-07T16:25:05.849Z,95024.00
2019-06-07T16:27:38.674Z,95022.00
2019-06-07T16:30:11.331Z,95024.00
2019-06-07T16:32:44.136Z,95025.00
2019-06-07T16:35:18.370Z,95035.00
2019-06-07T16:37:52.451Z,95014.00
2019-06-07T16:40:24.849Z,95016.00
2019-06-07T16:43:13.305Z,95014.00
2019-06-07T16:45:31.474Z,95020.00
2019-06-07T16:48:03.609Z,95025.00
2019-06-07T16:50:36.691Z,95014.00
2019-06-07T16:53:09.278Z,95021.00
2019-06-07T16:55:42.638Z,95030.00
2019-06-07T16:58:14.984Z,95043.00
2019-06-07T17:00:48.599Z,95040.00
2019-06-07T17:03:20.628Z,95040.00
2019-06-07T17:05:57.507Z,95040.00
2019-06-07T17:08:30.021Z,95055.00
2019-06-07T17:11:02.269Z,95048.00
2019-06-07T17:13:34.196Z,95047.00
2019-06-07T17:16:06.452Z,95045.00
2019-06-07T17:18:39.069Z,95040.00
2019-06-07T17:21:11.330Z,95044.00
2019-06-07T17:23:43.808Z,95039.00
2019-06-07T17:26:16.801Z,95037.00
2019-06-07T17:28:50.096Z,95040.00
2019-06-07T17:31:21.969Z,95040.00
2019-06-07T17:33:54.601Z,95049.00
2019-06-07T17:36:26.714Z,95054.00
2019-06-07T17:38:59.358Z,95049.00
2019-06-07T17:41:41.897Z,95042.00
2019-06-07T17:44:05.638Z,95041.00
2019-06-07T17:46:37.795Z,95051.00
2019-06-07T17:49:09.652Z,95067.00
2019-06-07T17:51:41.855Z,95066.00
2019-06-07T17:54:14.208Z,95070.00
2019-06-07T17:56:48.230Z,95069.00
2019-06-07T17:59:20.402Z,95078.00
2019-06-07T18:02:13.546Z,95084.00
2019-06-07T18:04:26.804Z,95091.00
2019-06-07T18:06:58.742Z,95105.00
2019-06-07T18:09:31.098Z,95113.00
2019-06-07T18:12:03.205Z,95124.00
2019-06-07T18:14:35.793Z,95182.00
2019-06-07T18:17:08.265Z,95228.00
2019-06-07T18:19:40.461Z,95221.00
2019-06-07T18:22:12.775Z,95213.00
2019-06-07T18:24:46.457Z,95221.00
2019-06-07T18:27:18.554Z,95267.00
2019-06-07T18:29:50.782Z,95285.00
2019-06-07T18:32:23.477Z,95293.00
2019-06-07T18:34:56.889Z,95288.00
2019-06-07T18:37:29.109Z,95292.00
2019-06-07T18:40:02.476Z,95304.00
2019-06-07T18:42:34.688Z,95347.00
2019-06-07T18:45:07.494Z,95344.00
2019-06-07T18:47:40.023Z,95365.00
2019-06-07T18:50:12.072Z,95392.00
2019-06-07T18:52:46.735Z,95416.00
2019-06-07T18:55:19.525Z,95431.00
2019-06-07T18:57:52.228Z,95441.00
2019-06-07T19:00:26.811Z,95441.00
2019-06-07T19:02:58.654Z,95502.00
2019-06-07T19:05:31.138Z,95499.00
2019-06-07T19:08:03.911Z,95492.00
2019-06-07T19:10:35.810Z,95500.00
2019-06-07T19:13:08.255Z,95510.00
2019-06-07T19:15:43.187Z,95521.00
2019-06-07T19:18:14.839Z,95520.00
2019-06-07T19:20:47.381Z,95538.00
2019-06-07T19:23:19.226Z,95536.00
2019-06-07T19:25:52.202Z,95537.00
2019-06-07T19:28:24.512Z,95546.00
2019-06-07T19:30:57.233Z,95556.00
2019-06-07T19:33:29.392Z,95561.00
2019-06-07T19:36:01.874Z,95564.00
2019-06-07T19:38:34.172Z,95575.00
2019-06-07T19:41:18.144Z,95581.00
2019-06-07T19:43:40.078Z,95597.00
2019-06-07T19:46:12.197Z,95609.00
2019-06-07T19:48:44.346Z,95617.00
2019-06-07T19:51:20.085Z,95618.00
2019-06-07T19:53:50.211Z,95625.00
2019-06-07T19:56:22.142Z,95618.00
2019-06-07T19:58:55.447Z,95640.00
2019-06-07T20:01:27.713Z,95642.00
2019-06-07T20:04:00.315Z,95660.00
2019-06-07T20:06:32.278Z,95660.00
2019-06-07T20:09:05.735Z,95671.00
2019-06-07T20:11:39.084Z,95668.00
2019-06-07T20:14:12.222Z,95670.00
2019-06-07T20:16:44.835Z,95658.00
2019-06-07T20:19:17.348Z,95691.00
2019-06-07T20:21:49.576Z,95689.00
2019-06-07T20:24:27.416Z,95702.00
2019-06-07T20:27:00.285Z,95691.00
2019-06-07T20:29:32.760Z,95701.00
2019-06-07T20:32:04.680Z,95690.00
2019-06-07T20:34:37.121Z,95701.00
2019-06-07T20:37:09.836Z,95698.00
2019-06-07T20:39:41.669Z,95695.00
2019-06-07T20:42:13.896Z,95700.00
2019-06-07T20:44:45.802Z,95704.00
2019-06-07T20:47:18.032Z,95698.00
2019-06-07T20:49:50.216Z,95703.00
2019-06-07T20:52:22.940Z,95703.00
2019-06-07T20:54:54.792Z,95710.00
2019-06-07T20:57:27.143Z,95723.00
2019-06-07T20:59:59.023Z,95726.00
2019-06-07T21:02:31.191Z,95729.00
2019-06-07T21:05:03.583Z,95737.00
2019-06-07T21:07:35.873Z,95735.00
2019-06-07T21:10:08.540Z,95737.00
2019-06-07T21:12:41.970Z,95745.00
2019-06-07T21:15:14.963Z,95745.00
2019-06-07T21:17:47.380Z,95752.00
2019-06-07T21:20:20.036Z,95760.00
2019-06-07T21:22:52.311Z,95747.00
2019-06-07T21:25:24.272Z,95761.00
2019-06-07T21:27:56.823Z,95766.00
2019-06-07T21:30:29.125Z,95772.00
2019-06-07T21:33:01.441Z,95777.00
2019-06-07T21:35:34.251Z,95781.00
2019-06-07T21:38:06.208Z,95786.00
2019-06-07T21:40:38.916Z,95790.00
2019-06-07T21:43:10.939Z,95798.00
2019-06-07T21:45:42.945Z,95800.00
2019-06-07T21:48:15.127Z,95798.00
2019-06-07T21:50:47.564Z,95816.00
2019-06-07T21:53:20.311Z,95804.00
2019-06-07T21:55:52.843Z,95819.00
2019-06-07T21:58:25.723Z,95814.00
2019-06-07T22:01:23.116Z,95823.00
2019-06-07T22:03:55.486Z,95829.00
2019-06-07T22:06:27.819Z,95837.00
2019-06-07T22:08:59.753Z,95834.00
2019-06-07T22:11:32.129Z,95842.00
2019-06-07T22:14:06.273Z,95847.00
2019-06-07T22:16:38.239Z,95843.00
2019-06-07T22:19:10.847Z,95832.00
2019-06-07T22:21:43.586Z,95838.00
2019-06-07T22:24:15.796Z,95843.00
2019-06-07T22:26:47.645Z,95850.00
2019-06-07T22:29:20.010Z,95848.00
2019-06-07T22:31:52.214Z,95855.00
2019-06-07T22:34:24.631Z,95860.00
2019-06-07T22:36:56.467Z,95863.00
2019-06-07T22:39:28.723Z,95870.00
2019-06-07T22:42:01.426Z,95875.00
2019-06-07T22:44:33.404Z,95881.00
2019-06-07T22:47:05.245Z,95883.00
2019-06-07T22:49:37.125Z,95882.00
2019-06-07T22:52:13.370Z,95892.00
2019-06-07T22:54:43.152Z,95894.00
2019-06-07T22:57:25.173Z,95887.00
2019-06-07T22:59:57.095Z,95894.00
2019-06-07T23:02:29.635Z,95899.00
2019-06-07T23:05:04.986Z,95899.00
2019-06-07T23:07:40.313Z,95906.00
2019-06-07T23:10:13.340Z,95903.00
2019-06-07T23:12:45.846Z,95905.00
2019-06-07T23:15:20.411Z,95914.00
2019-06-07T23:17:55.129Z,95924.00
2019-06-07T23:20:27.481Z,95942.00
2019-06-07T23:23:01.158Z,95944.00
2019-06-07T23:25:43.201Z,95955.00
2019-06-07T23:28:18.895Z,95949.00
2019-06-07T23:30:50.870Z,95943.00
2019-06-07T23:33:24.862Z,95940.00
2019-06-07T23:35:57.003Z,95951.00
2019-06-07T23:38:29.665Z,95960.00
2019-06-07T23:41:01.676Z,95963.00
2019-06-07T23:43:33.848Z,95961.00
2019-06-07T23:46:06.067Z,95963.00
2019-06-07T23:48:38.450Z,95954.00
2019-06-07T23:51:11.507Z,95934.00
2019-06-07T23:53:43.976Z,95957.00
2019-06-07T23:56:16.207Z,95949.00
2019-06-07T23:58:48.299Z,95956.00
